sensor_id;sensor_type;location;lat;lon;timestamp;temperature;humidity
10980;DHT22;5543;51.734;8.744;2023-07-29T00:02:17;17.30;99.90
10980;DHT22;5543;51.734;8.744;2023-07-29T00:04:45;17.30;99.90
10980;DHT22;5543;51.734;8.744;2023-07-29T00:07:13;16.90;99.90
10980;DHT22;5543;51.734;8.744;2023-07-29T00:09:41;17.40;99.90
10980;DHT22;5543;51.734;8.744;2023-07-29T00:12:10;17.50;99.90
10980;DHT22;5543;51.734;8.744;2023-07-29T00:14:38;17.60;99.90
10980;DHT22;5543;51.734;8.744;2023-07-29T00:17:07;17.70;99.90
10980;DHT22;5543;51.734;8.744;2023-07-29T00:19:35;17.70;99.90
10980;DHT22;5543;51.734;8.744;2023-07-29T00:22:04;17.80;99.90
10980;DHT22;5543;51.734;8.744;2023-07-29T00:24:35;17.80;99.90
10980;DHT22;5543;51.734;8.744;2023-07-29T00:27:03;17.90;99.90
10980;DHT22;5543;51.734;8.744;2023-07-29T00:29:33;17.90;99.90
10980;DHT22;5543;51.734;8.744;2023-07-29T00:32:01;18.00;99.90
10980;DHT22;5543;51.734;8.744;2023-07-29T00:34:29;18.00;99.90
10980;DHT22;5543;51.734;8.744;2023-07-29T00:36:57;18.00;99.90
10980;DHT22;5543;51.734;8.744;2023-07-29T00:39:25;17.00;99.90
10980;DHT22;5543;51.734;8.744;2023-07-29T00:41:54;18.20;99.90
10980;DHT22;5543;51.734;8.744;2023-07-29T00:44:22;18.30;99.90
10980;DHT22;5543;51.734;8.744;2023-07-29T00:46:53;18.30;99.90
10980;DHT22;5543;51.734;8.744;2023-07-29T00:49:21;18.30;99.90
10980;DHT22;5543;51.734;8.744;2023-07-29T00:51:49;18.30;99.90
10980;DHT22;5543;51.734;8.744;2023-07-29T00:54:18;18.30;99.90
10980;DHT22;5543;51.734;8.744;2023-07-29T00:56:46;18.30;99.90
10980;DHT22;5543;51.734;8.744;2023-07-29T00:59:14;18.40;99.90
10980;DHT22;5543;51.734;8.744;2023-07-29T01:01:42;18.40;99.90
10980;DHT22;5543;51.734;8.744;2023-07-29T01:04:12;18.40;99.90
10980;DHT22;5543;51.734;8.744;2023-07-29T01:06:49;18.40;99.90
10980;DHT22;5543;51.734;8.744;2023-07-29T01:09:28;18.40;99.90
10980;DHT22;5543;51.734;8.744;2023-07-29T01:12:04;18.40;99.90
10980;DHT22;5543;51.734;8.744;2023-07-29T01:14:54;18.40;99.90
10980;DHT22;5543;51.734;8.744;2023-07-29T01:17:25;18.30;99.90
10980;DHT22;5543;51.734;8.744;2023-07-29T01:20:01;18.30;99.90
10980;DHT22;5543;51.734;8.744;2023-07-29T01:22:33;18.30;99.90
10980;DHT22;5543;51.734;8.744;2023-07-29T01:25:04;18.30;99.90
10980;DHT22;5543;51.734;8.744;2023-07-29T01:27:32;18.30;99.90
10980;DHT22;5543;51.734;8.744;2023-07-29T01:30:01;18.30;99.90
10980;DHT22;5543;51.734;8.744;2023-07-29T01:32:37;18.30;99.90
10980;DHT22;5543;51.734;8.744;2023-07-29T01:35:17;18.40;99.90
10980;DHT22;5543;51.734;8.744;2023-07-29T01:37:52;18.40;99.90
10980;DHT22;5543;51.734;8.744;2023-07-29T01:40:23;18.40;99.90
10980;DHT22;5543;51.734;8.744;2023-07-29T01:42:52;18.30;99.90
10980;DHT22;5543;51.734;8.744;2023-07-29T01:45:23;18.30;99.90
10980;DHT22;5543;51.734;8.744;2023-07-29T01:47:52;18.30;99.90
10980;DHT22;5543;51.734;8.744;2023-07-29T01:50:20;18.40;99.90
10980;DHT22;5543;51.734;8.744;2023-07-29T01:52:49;18.50;99.90
10980;DHT22;5543;51.734;8.744;2023-07-29T01:55:17;18.50;99.90
10980;DHT22;5543;51.734;8.744;2023-07-29T01:57:46;18.60;99.90
10980;DHT22;5543;51.734;8.744;2023-07-29T02:00:15;18.60;99.90
10980;DHT22;5543;51.734;8.744;2023-07-29T02:02:44;18.40;99.90
10980;DHT22;5543;51.734;8.744;2023-07-29T02:05:12;18.60;99.90
10980;DHT22;5543;51.734;8.744;2023-07-29T02:07:40;18.60;99.90
10980;DHT22;5543;51.734;8.744;2023-07-29T02:10:09;18.60;99.90
10980;DHT22;5543;51.734;8.744;2023-07-29T02:12:37;18.60;99.90
10980;DHT22;5543;51.734;8.744;2023-07-29T02:15:10;18.60;99.90
10980;DHT22;5543;51.734;8.744;2023-07-29T02:17:41;18.60;99.90
10980;DHT22;5543;51.734;8.744;2023-07-29T02:20:10;18.60;99.90
10980;DHT22;5543;51.734;8.744;2023-07-29T02:22:38;18.50;99.90
10980;DHT22;5543;51.734;8.744;2023-07-29T02:25:07;18.50;99.90
10980;DHT22;5543;51.734;8.744;2023-07-29T02:27:36;18.40;99.90
10980;DHT22;5543;51.734;8.744;2023-07-29T02:30:07;18.30;99.90
10980;DHT22;5543;51.734;8.744;2023-07-29T02:32:36;18.40;99.90
10980;DHT22;5543;51.734;8.744;2023-07-29T02:35:05;18.40;99.90
10980;DHT22;5543;51.734;8.744;2023-07-29T02:37:33;17.90;99.90
10980;DHT22;5543;51.734;8.744;2023-07-29T02:40:01;18.40;99.90
10980;DHT22;5543;51.734;8.744;2023-07-29T02:42:30;18.30;99.90
10980;DHT22;5543;51.734;8.744;2023-07-29T02:44:58;18.30;99.90
10980;DHT22;5543;51.734;8.744;2023-07-29T02:47:28;18.30;99.90
10980;DHT22;5543;51.734;8.744;2023-07-29T02:49:56;18.30;99.90
10980;DHT22;5543;51.734;8.744;2023-07-29T02:52:24;18.30;99.90
10980;DHT22;5543;51.734;8.744;2023-07-29T02:54:52;18.30;99.90
10980;DHT22;5543;51.734;8.744;2023-07-29T02:57:20;18.30;99.90
10980;DHT22;5543;51.734;8.744;2023-07-29T02:59:49;18.30;99.90
10980;DHT22;5543;51.734;8.744;2023-07-29T03:02:17;18.30;99.90
10980;DHT22;5543;51.734;8.744;2023-07-29T03:04:47;18.30;99.90
10980;DHT22;5543;51.734;8.744;2023-07-29T03:07:16;18.30;99.90
10980;DHT22;5543;51.734;8.744;2023-07-29T03:09:44;18.20;99.90
10980;DHT22;5543;51.734;8.744;2023-07-29T03:12:12;18.20;99.90
10980;DHT22;5543;51.734;8.744;2023-07-29T03:14:40;18.20;99.90
10980;DHT22;5543;51.734;8.744;2023-07-29T03:17:09;18.20;99.90
10980;DHT22;5543;51.734;8.744;2023-07-29T03:19:37;18.20;99.90
10980;DHT22;5543;51.734;8.744;2023-07-29T03:22:07;18.20;99.90
10980;DHT22;5543;51.734;8.744;2023-07-29T03:24:35;18.20;99.90
10980;DHT22;5543;51.734;8.744;2023-07-29T03:27:04;18.20;99.90
10980;DHT22;5543;51.734;8.744;2023-07-29T03:29:32;18.30;99.90
10980;DHT22;5543;51.734;8.744;2023-07-29T03:32:00;18.30;99.90
10980;DHT22;5543;51.734;8.744;2023-07-29T03:34:28;18.60;99.90
10980;DHT22;5543;51.734;8.744;2023-07-29T03:36:56;18.30;99.90
10980;DHT22;5543;51.734;8.744;2023-07-29T03:39:26;18.30;99.90
10980;DHT22;5543;51.734;8.744;2023-07-29T03:41:54;18.30;99.90
10980;DHT22;5543;51.734;8.744;2023-07-29T03:44:22;18.30;99.90
10980;DHT22;5543;51.734;8.744;2023-07-29T03:46:50;18.30;99.90
10980;DHT22;5543;51.734;8.744;2023-07-29T03:49:18;18.30;99.90
10980;DHT22;5543;51.734;8.744;2023-07-29T03:51:46;18.20;99.90
10980;DHT22;5543;51.734;8.744;2023-07-29T03:54:15;18.30;99.90
10980;DHT22;5543;51.734;8.744;2023-07-29T03:56:44;18.20;99.90
10980;DHT22;5543;51.734;8.744;2023-07-29T03:59:12;18.20;99.90
10980;DHT22;5543;51.734;8.744;2023-07-29T04:01:40;18.20;99.90
10980;DHT22;5543;51.734;8.744;2023-07-29T04:04:09;18.20;99.90
10980;DHT22;5543;51.734;8.744;2023-07-29T04:06:37;18.20;99.90
10980;DHT22;5543;51.734;8.744;2023-07-29T04:09:05;18.20;99.90
10980;DHT22;5543;51.734;8.744;2023-07-29T04:11:33;18.20;99.90
10980;DHT22;5543;51.734;8.744;2023-07-29T04:14:03;18.10;99.90
10980;DHT22;5543;51.734;8.744;2023-07-29T04:16:31;18.10;99.90
10980;DHT22;5543;51.734;8.744;2023-07-29T04:18:59;18.10;99.90
10980;DHT22;5543;51.734;8.744;2023-07-29T04:21:28;18.10;99.90
10980;DHT22;5543;51.734;8.744;2023-07-29T04:23:56;18.10;99.90
10980;DHT22;5543;51.734;8.744;2023-07-29T04:26:24;18.10;99.90
10980;DHT22;5543;51.734;8.744;2023-07-29T04:28:52;18.10;99.90
10980;DHT22;5543;51.734;8.744;2023-07-29T04:31:22;18.10;99.90
10980;DHT22;5543;51.734;8.744;2023-07-29T04:33:50;18.20;99.90
10980;DHT22;5543;51.734;8.744;2023-07-29T04:36:18;18.20;99.90
10980;DHT22;5543;51.734;8.744;2023-07-29T04:38:46;18.20;99.90
10980;DHT22;5543;51.734;8.744;2023-07-29T04:41:14;18.20;99.90
10980;DHT22;5543;51.734;8.744;2023-07-29T04:43:42;18.20;99.90
10980;DHT22;5543;51.734;8.744;2023-07-29T04:46:10;18.20;99.90
10980;DHT22;5543;51.734;8.744;2023-07-29T04:48:40;18.20;99.90
10980;DHT22;5543;51.734;8.744;2023-07-29T04:51:08;18.20;99.90
10980;DHT22;5543;51.734;8.744;2023-07-29T04:53:36;18.30;99.90
10980;DHT22;5543;51.734;8.744;2023-07-29T04:56:05;18.20;99.90
10980;DHT22;5543;51.734;8.744;2023-07-29T04:58:33;18.20;99.90
10980;DHT22;5543;51.734;8.744;2023-07-29T05:01:02;18.30;99.90
10980;DHT22;5543;51.734;8.744;2023-07-29T05:03:30;18.40;99.90
10980;DHT22;5543;51.734;8.744;2023-07-29T05:06:00;18.30;99.90
10980;DHT22;5543;51.734;8.744;2023-07-29T05:08:28;18.40;99.90
10980;DHT22;5543;51.734;8.744;2023-07-29T05:10:56;18.40;99.90
10980;DHT22;5543;51.734;8.744;2023-07-29T05:13:24;18.40;99.90
10980;DHT22;5543;51.734;8.744;2023-07-29T05:15:52;18.60;99.90
10980;DHT22;5543;51.734;8.744;2023-07-29T05:18:21;18.50;99.90
10980;DHT22;5543;51.734;8.744;2023-07-29T05:20:50;18.50;99.90
10980;DHT22;5543;51.734;8.744;2023-07-29T05:23:19;18.50;99.90
10980;DHT22;5543;51.734;8.744;2023-07-29T05:25:47;18.50;99.90
10980;DHT22;5543;51.734;8.744;2023-07-29T05:28:15;18.60;99.90
10980;DHT22;5543;51.734;8.744;2023-07-29T05:30:44;18.50;99.90
10980;DHT22;5543;51.734;8.744;2023-07-29T05:33:12;18.60;99.90
10980;DHT22;5543;51.734;8.744;2023-07-29T05:35:40;18.70;99.90
10980;DHT22;5543;51.734;8.744;2023-07-29T05:38:08;18.70;99.90
10980;DHT22;5543;51.734;8.744;2023-07-29T05:40:38;18.70;99.90
10980;DHT22;5543;51.734;8.744;2023-07-29T05:43:06;18.80;99.90
10980;DHT22;5543;51.734;8.744;2023-07-29T05:45:34;18.80;99.90
10980;DHT22;5543;51.734;8.744;2023-07-29T05:48:02;18.90;99.90
10980;DHT22;5543;51.734;8.744;2023-07-29T05:50:30;18.90;99.90
10980;DHT22;5543;51.734;8.744;2023-07-29T05:52:58;18.90;99.90
10980;DHT22;5543;51.734;8.744;2023-07-29T05:55:27;19.00;99.90
10980;DHT22;5543;51.734;8.744;2023-07-29T05:57:56;19.00;99.90
10980;DHT22;5543;51.734;8.744;2023-07-29T06:00:24;19.10;99.90
10980;DHT22;5543;51.734;8.744;2023-07-29T06:02:52;19.20;99.90
10980;DHT22;5543;51.734;8.744;2023-07-29T06:05:20;19.20;99.90
10980;DHT22;5543;51.734;8.744;2023-07-29T06:07:49;19.20;99.90
10980;DHT22;5543;51.734;8.744;2023-07-29T06:10:17;19.20;99.90
10980;DHT22;5543;51.734;8.744;2023-07-29T06:12:46;19.20;99.90
10980;DHT22;5543;51.734;8.744;2023-07-29T06:15:15;19.10;99.90
10980;DHT22;5543;51.734;8.744;2023-07-29T06:17:43;19.00;99.90
10980;DHT22;5543;51.734;8.744;2023-07-29T06:20:11;19.00;99.90
10980;DHT22;5543;51.734;8.744;2023-07-29T06:22:40;19.00;99.90
10980;DHT22;5543;51.734;8.744;2023-07-29T06:25:08;19.00;99.90
10980;DHT22;5543;51.734;8.744;2023-07-29T06:27:37;19.00;99.90
10980;DHT22;5543;51.734;8.744;2023-07-29T06:30:06;18.90;99.90
10980;DHT22;5543;51.734;8.744;2023-07-29T06:32:36;19.00;99.90
10980;DHT22;5543;51.734;8.744;2023-07-29T06:35:05;19.00;99.90
10980;DHT22;5543;51.734;8.744;2023-07-29T06:37:33;19.10;99.90
10980;DHT22;5543;51.734;8.744;2023-07-29T06:40:01;19.10;99.90
10980;DHT22;5543;51.734;8.744;2023-07-29T06:42:30;19.30;99.90
10980;DHT22;5543;51.734;8.744;2023-07-29T06:44:58;19.30;99.90
10980;DHT22;5543;51.734;8.744;2023-07-29T06:47:26;19.30;99.90
10980;DHT22;5543;51.734;8.744;2023-07-29T06:49:56;19.40;99.90
10980;DHT22;5543;51.734;8.744;2023-07-29T06:52:24;19.40;99.90
10980;DHT22;5543;51.734;8.744;2023-07-29T06:54:52;19.50;99.90
10980;DHT22;5543;51.734;8.744;2023-07-29T06:57:20;19.50;99.90
10980;DHT22;5543;51.734;8.744;2023-07-29T06:59:48;19.60;99.90
10980;DHT22;5543;51.734;8.744;2023-07-29T07:02:16;19.60;99.90
10980;DHT22;5543;51.734;8.744;2023-07-29T07:04:44;19.60;99.90
10980;DHT22;5543;51.734;8.744;2023-07-29T07:07:15;19.60;99.90
10980;DHT22;5543;51.734;8.744;2023-07-29T07:09:43;19.60;99.90
10980;DHT22;5543;51.734;8.744;2023-07-29T07:12:11;19.60;99.90
10980;DHT22;5543;51.734;8.744;2023-07-29T07:14:40;19.70;99.90
10980;DHT22;5543;51.734;8.744;2023-07-29T07:17:08;19.70;99.90
10980;DHT22;5543;51.734;8.744;2023-07-29T07:19:39;19.70;99.90
10980;DHT22;5543;51.734;8.744;2023-07-29T07:22:07;19.70;99.90
10980;DHT22;5543;51.734;8.744;2023-07-29T07:24:36;19.70;99.90
10980;DHT22;5543;51.734;8.744;2023-07-29T07:27:05;19.60;99.90
10980;DHT22;5543;51.734;8.744;2023-07-29T07:29:33;19.60;99.90
10980;DHT22;5543;51.734;8.744;2023-07-29T07:32:02;19.60;99.90
10980;DHT22;5543;51.734;8.744;2023-07-29T07:34:30;19.70;99.90
10980;DHT22;5543;51.734;8.744;2023-07-29T07:37:00;19.70;99.90
10980;DHT22;5543;51.734;8.744;2023-07-29T07:39:28;19.90;99.90
10980;DHT22;5543;51.734;8.744;2023-07-29T07:41:59;19.90;99.90
10980;DHT22;5543;51.734;8.744;2023-07-29T07:44:27;20.10;99.90
10980;DHT22;5543;51.734;8.744;2023-07-29T07:46:54;20.20;99.90
10980;DHT22;5543;51.734;8.744;2023-07-29T07:49:22;20.30;99.90
10980;DHT22;5543;51.734;8.744;2023-07-29T07:51:51;20.40;99.90
10980;DHT22;5543;51.734;8.744;2023-07-29T07:54:19;20.50;99.90
10980;DHT22;5543;51.734;8.744;2023-07-29T07:56:47;20.50;99.90
10980;DHT22;5543;51.734;8.744;2023-07-29T07:59:17;20.50;99.90
10980;DHT22;5543;51.734;8.744;2023-07-29T08:01:45;20.50;99.90
10980;DHT22;5543;51.734;8.744;2023-07-29T08:04:14;20.50;99.90
10980;DHT22;5543;51.734;8.744;2023-07-29T08:06:42;20.50;99.90
10980;DHT22;5543;51.734;8.744;2023-07-29T08:09:10;20.50;99.90
10980;DHT22;5543;51.734;8.744;2023-07-29T08:11:38;20.40;99.90
10980;DHT22;5543;51.734;8.744;2023-07-29T08:14:06;20.40;99.90
10980;DHT22;5543;51.734;8.744;2023-07-29T08:16:36;20.40;99.90
10980;DHT22;5543;51.734;8.744;2023-07-29T08:19:04;20.20;99.90
10980;DHT22;5543;51.734;8.744;2023-07-29T08:21:33;20.20;99.90
10980;DHT22;5543;51.734;8.744;2023-07-29T08:24:02;20.20;99.90
10980;DHT22;5543;51.734;8.744;2023-07-29T08:26:30;20.20;99.90
10980;DHT22;5543;51.734;8.744;2023-07-29T08:28:58;20.20;99.90
10980;DHT22;5543;51.734;8.744;2023-07-29T08:31:27;20.30;99.90
10980;DHT22;5543;51.734;8.744;2023-07-29T08:33:57;20.30;99.90
10980;DHT22;5543;51.734;8.744;2023-07-29T08:36:25;20.40;99.90
10980;DHT22;5543;51.734;8.744;2023-07-29T08:38:54;20.50;99.90
10980;DHT22;5543;51.734;8.744;2023-07-29T08:41:26;20.50;99.90
10980;DHT22;5543;51.734;8.744;2023-07-29T08:44:26;20.60;99.90
10980;DHT22;5543;51.734;8.744;2023-07-29T08:46:56;20.60;99.90
10980;DHT22;5543;51.734;8.744;2023-07-29T08:49:26;20.70;99.90
10980;DHT22;5543;51.734;8.744;2023-07-29T08:51:56;20.70;99.90
10980;DHT22;5543;51.734;8.744;2023-07-29T08:54:26;20.90;99.90
10980;DHT22;5543;51.734;8.744;2023-07-29T08:56:54;21.10;99.90
10980;DHT22;5543;51.734;8.744;2023-07-29T08:59:23;21.20;99.90
10980;DHT22;5543;51.734;8.744;2023-07-29T09:01:52;21.20;99.90
10980;DHT22;5543;51.734;8.744;2023-07-29T09:04:22;21.10;99.90
10980;DHT22;5543;51.734;8.744;2023-07-29T09:06:54;21.20;99.90
10980;DHT22;5543;51.734;8.744;2023-07-29T09:09:24;21.60;99.90
10980;DHT22;5543;51.734;8.744;2023-07-29T09:12:20;22.10;99.90
10980;DHT22;5543;51.734;8.744;2023-07-29T09:14:58;22.40;99.90
10980;DHT22;5543;51.734;8.744;2023-07-29T09:17:52;23.40;99.90
10980;DHT22;5543;51.734;8.744;2023-07-29T09:20:45;24.60;99.90
10980;DHT22;5543;51.734;8.744;2023-07-29T09:23:39;25.20;99.90
10980;DHT22;5543;51.734;8.744;2023-07-29T09:26:37;25.60;99.90
10980;DHT22;5543;51.734;8.744;2023-07-29T09:29:27;25.70;99.90
10980;DHT22;5543;51.734;8.744;2023-07-29T09:32:19;26.50;99.90
10980;DHT22;5543;51.734;8.744;2023-07-29T09:35:11;27.30;99.90
10980;DHT22;5543;51.734;8.744;2023-07-29T09:38:00;27.50;99.90
10980;DHT22;5543;51.734;8.744;2023-07-29T09:40:57;27.40;98.90
10980;DHT22;5543;51.734;8.744;2023-07-29T09:44:04;27.60;98.30
10980;DHT22;5543;51.734;8.744;2023-07-29T09:46:55;28.90;97.70
10980;DHT22;5543;51.734;8.744;2023-07-29T09:49:33;29.40;96.30
10980;DHT22;5543;51.734;8.744;2023-07-29T09:52:09;29.70;95.40
10980;DHT22;5543;51.734;8.744;2023-07-29T09:54:48;29.30;94.70
10980;DHT22;5543;51.734;8.744;2023-07-29T09:57:32;28.90;95.60
10980;DHT22;5543;51.734;8.744;2023-07-29T10:00:31;28.40;95.00
10980;DHT22;5543;51.734;8.744;2023-07-29T10:03:39;28.80;94.80
10980;DHT22;5543;51.734;8.744;2023-07-29T10:06:28;29.40;95.40
10980;DHT22;5543;51.734;8.744;2023-07-29T10:09:39;29.90;93.70
10980;DHT22;5543;51.734;8.744;2023-07-29T10:12:37;29.90;92.40
10980;DHT22;5543;51.734;8.744;2023-07-29T10:15:23;29.50;91.70
10980;DHT22;5543;51.734;8.744;2023-07-29T10:19:26;30.00;93.10
10980;DHT22;5543;51.734;8.744;2023-07-29T10:22:21;30.00;91.40
10980;DHT22;5543;51.734;8.744;2023-07-29T10:24:56;30.80;91.40
10980;DHT22;5543;51.734;8.744;2023-07-29T10:27:59;30.70;90.70
10980;DHT22;5543;51.734;8.744;2023-07-29T10:30:37;30.70;87.60
10980;DHT22;5543;51.734;8.744;2023-07-29T10:33:27;30.40;87.50
10980;DHT22;5543;51.734;8.744;2023-07-29T10:36:20;30.40;90.00
10980;DHT22;5543;51.734;8.744;2023-07-29T10:39:09;30.50;90.00
10980;DHT22;5543;51.734;8.744;2023-07-29T10:42:05;30.70;86.40
10980;DHT22;5543;51.734;8.744;2023-07-29T10:47:56;29.90;85.90
10980;DHT22;5543;51.734;8.744;2023-07-29T10:54:12;30.30;90.30
10980;DHT22;5543;51.734;8.744;2023-07-29T10:57:33;30.60;84.30
10980;DHT22;5543;51.734;8.744;2023-07-29T11:03:14;30.70;82.70
10980;DHT22;5543;51.734;8.744;2023-07-29T11:05:45;30.50;82.00
10980;DHT22;5543;51.734;8.744;2023-07-29T11:08:22;30.80;85.30
10980;DHT22;5543;51.734;8.744;2023-07-29T11:11:06;30.50;81.80
10980;DHT22;5543;51.734;8.744;2023-07-29T11:13:35;30.70;81.00
10980;DHT22;5543;51.734;8.744;2023-07-29T11:16:05;30.80;84.50
10980;DHT22;5543;51.734;8.744;2023-07-29T11:18:34;31.00;82.80
10980;DHT22;5543;51.734;8.744;2023-07-29T11:21:03;31.30;82.50
10980;DHT22;5543;51.734;8.744;2023-07-29T11:23:33;31.30;85.30
10980;DHT22;5543;51.734;8.744;2023-07-29T11:26:02;31.00;82.40
10980;DHT22;5543;51.734;8.744;2023-07-29T11:28:38;30.20;81.50
10980;DHT22;5543;51.734;8.744;2023-07-29T11:31:06;29.50;83.80
10980;DHT22;5543;51.734;8.744;2023-07-29T11:33:34;29.50;84.00
10980;DHT22;5543;51.734;8.744;2023-07-29T11:36:03;29.50;84.00
10980;DHT22;5543;51.734;8.744;2023-07-29T11:38:31;29.90;88.10
10980;DHT22;5543;51.734;8.744;2023-07-29T11:41:03;30.30;83.40
10980;DHT22;5543;51.734;8.744;2023-07-29T11:43:36;30.50;86.80
10980;DHT22;5543;51.734;8.744;2023-07-29T11:46:04;29.90;83.70
10980;DHT22;5543;51.734;8.744;2023-07-29T11:48:33;30.00;85.90
10980;DHT22;5543;51.734;8.744;2023-07-29T11:51:02;30.20;84.30
10980;DHT22;5543;51.734;8.744;2023-07-29T11:53:31;30.50;84.20
10980;DHT22;5543;51.734;8.744;2023-07-29T11:55:59;30.50;83.40
10980;DHT22;5543;51.734;8.744;2023-07-29T11:58:27;30.70;81.80
10980;DHT22;5543;51.734;8.744;2023-07-29T12:00:57;30.80;84.80
10980;DHT22;5543;51.734;8.744;2023-07-29T12:03:25;30.80;81.60
10980;DHT22;5543;51.734;8.744;2023-07-29T12:05:54;30.70;83.60
10980;DHT22;5543;51.734;8.744;2023-07-29T12:08:22;30.50;84.10
10980;DHT22;5543;51.734;8.744;2023-07-29T12:10:51;30.40;84.30
10980;DHT22;5543;51.734;8.744;2023-07-29T12:13:24;30.50;86.60
10980;DHT22;5543;51.734;8.744;2023-07-29T12:15:52;30.00;84.00
10980;DHT22;5543;51.734;8.744;2023-07-29T12:18:31;29.20;82.30
10980;DHT22;5543;51.734;8.744;2023-07-29T12:21:00;28.40;84.30
10980;DHT22;5543;51.734;8.744;2023-07-29T12:23:29;27.90;87.80
10980;DHT22;5543;51.734;8.744;2023-07-29T12:25:58;27.50;87.50
10980;DHT22;5543;51.734;8.744;2023-07-29T12:28:26;27.40;90.60
10980;DHT22;5543;51.734;8.744;2023-07-29T12:30:55;27.30;90.60
10980;DHT22;5543;51.734;8.744;2023-07-29T12:33:32;27.20;89.40
10980;DHT22;5543;51.734;8.744;2023-07-29T12:36:00;26.70;88.40
10980;DHT22;5543;51.734;8.744;2023-07-29T12:38:28;26.40;90.70
10980;DHT22;5543;51.734;8.744;2023-07-29T12:40:57;26.10;91.40
10980;DHT22;5543;51.734;8.744;2023-07-29T12:43:25;25.90;91.70
10980;DHT22;5543;51.734;8.744;2023-07-29T12:45:54;25.40;91.60
10980;DHT22;5543;51.734;8.744;2023-07-29T12:48:22;25.20;92.70
10980;DHT22;5543;51.734;8.744;2023-07-29T12:50:51;24.80;93.00
10980;DHT22;5543;51.734;8.744;2023-07-29T12:53:20;24.60;93.40
10980;DHT22;5543;51.734;8.744;2023-07-29T12:55:48;24.40;94.00
10980;DHT22;5543;51.734;8.744;2023-07-29T12:58:16;24.90;92.70
10980;DHT22;5543;51.734;8.744;2023-07-29T13:00:45;25.20;93.90
10980;DHT22;5543;51.734;8.744;2023-07-29T13:03:13;25.70;94.40
10980;DHT22;5543;51.734;8.744;2023-07-29T13:05:42;26.20;93.80
10980;DHT22;5543;51.734;8.744;2023-07-29T13:08:11;26.60;93.20
10980;DHT22;5543;51.734;8.744;2023-07-29T13:10:39;26.70;93.60
10980;DHT22;5543;51.734;8.744;2023-07-29T13:13:08;26.50;93.30
10980;DHT22;5543;51.734;8.744;2023-07-29T13:15:36;26.10;93.30
10980;DHT22;5543;51.734;8.744;2023-07-29T13:18:04;25.80;94.40
10980;DHT22;5543;51.734;8.744;2023-07-29T13:20:32;25.90;94.90
10980;DHT22;5543;51.734;8.744;2023-07-29T13:23:01;26.10;95.00
10980;DHT22;5543;51.734;8.744;2023-07-29T13:25:31;26.30;94.00
10980;DHT22;5543;51.734;8.744;2023-07-29T13:27:59;26.20;93.50
10980;DHT22;5543;51.734;8.744;2023-07-29T13:30:27;26.10;92.60
10980;DHT22;5543;51.734;8.744;2023-07-29T13:32:56;25.80;95.70
10980;DHT22;5543;51.734;8.744;2023-07-29T13:35:24;25.60;94.00
10980;DHT22;5543;51.734;8.744;2023-07-29T13:37:52;25.50;94.40
10980;DHT22;5543;51.734;8.744;2023-07-29T13:40:20;25.50;93.90
10980;DHT22;5543;51.734;8.744;2023-07-29T13:42:50;25.90;94.80
10980;DHT22;5543;51.734;8.744;2023-07-29T13:45:19;26.40;92.70
10980;DHT22;5543;51.734;8.744;2023-07-29T13:47:47;26.80;91.30
10980;DHT22;5543;51.734;8.744;2023-07-29T13:50:16;27.50;92.50
10980;DHT22;5543;51.734;8.744;2023-07-29T13:52:44;28.00;91.30
10980;DHT22;5543;51.734;8.744;2023-07-29T13:55:13;28.10;91.70
10980;DHT22;5543;51.734;8.744;2023-07-29T13:57:41;27.80;90.70
10980;DHT22;5543;51.734;8.744;2023-07-29T14:00:11;27.80;91.00
10980;DHT22;5543;51.734;8.744;2023-07-29T14:02:39;28.10;92.40
10980;DHT22;5543;51.734;8.744;2023-07-29T14:05:08;28.50;92.30
10980;DHT22;5543;51.734;8.744;2023-07-29T14:07:36;28.80;92.10
10980;DHT22;5543;51.734;8.744;2023-07-29T14:10:05;29.00;92.40
10980;DHT22;5543;51.734;8.744;2023-07-29T14:12:33;28.70;90.40
10980;DHT22;5543;51.734;8.744;2023-07-29T14:15:03;28.60;91.70
10980;DHT22;5543;51.734;8.744;2023-07-29T14:17:32;28.30;91.80
10980;DHT22;5543;51.734;8.744;2023-07-29T14:20:01;28.00;90.90
10980;DHT22;5543;51.734;8.744;2023-07-29T14:22:29;27.70;91.30
10980;DHT22;5543;51.734;8.744;2023-07-29T14:24:58;27.80;90.00
10980;DHT22;5543;51.734;8.744;2023-07-29T14:27:27;28.10;88.00
10980;DHT22;5543;51.734;8.744;2023-07-29T14:29:55;28.20;90.00
10980;DHT22;5543;51.734;8.744;2023-07-29T14:32:23;27.90;90.00
10980;DHT22;5543;51.734;8.744;2023-07-29T14:34:53;27.40;89.30
10980;DHT22;5543;51.734;8.744;2023-07-29T14:37:21;27.00;91.50
10980;DHT22;5543;51.734;8.744;2023-07-29T14:39:49;26.50;90.90
10980;DHT22;5543;51.734;8.744;2023-07-29T14:42:18;26.20;91.30
10980;DHT22;5543;51.734;8.744;2023-07-29T14:44:46;26.10;92.20
10980;DHT22;5543;51.734;8.744;2023-07-29T14:47:14;26.30;92.60
10980;DHT22;5543;51.734;8.744;2023-07-29T14:49:43;26.30;93.00
10980;DHT22;5543;51.734;8.744;2023-07-29T14:52:13;26.20;93.60
10980;DHT22;5543;51.734;8.744;2023-07-29T14:54:41;25.90;93.70
10980;DHT22;5543;51.734;8.744;2023-07-29T14:57:10;25.50;94.50
10980;DHT22;5543;51.734;8.744;2023-07-29T14:59:38;25.40;95.70
10980;DHT22;5543;51.734;8.744;2023-07-29T15:02:07;25.10;95.70
10980;DHT22;5543;51.734;8.744;2023-07-29T15:04:35;24.90;96.10
10980;DHT22;5543;51.734;8.744;2023-07-29T15:07:03;24.70;96.20
10980;DHT22;5543;51.734;8.744;2023-07-29T15:09:33;24.30;98.00
10980;DHT22;5543;51.734;8.744;2023-07-29T15:12:01;24.00;98.10
10980;DHT22;5543;51.734;8.744;2023-07-29T15:14:30;23.80;97.40
10980;DHT22;5543;51.734;8.744;2023-07-29T15:16:58;23.70;97.90
10980;DHT22;5543;51.734;8.744;2023-07-29T15:19:26;23.60;95.30
10980;DHT22;5543;51.734;8.744;2023-07-29T15:21:55;23.60;96.60
10980;DHT22;5543;51.734;8.744;2023-07-29T15:24:23;23.60;96.20
10980;DHT22;5543;51.734;8.744;2023-07-29T15:26:52;23.60;96.10
10980;DHT22;5543;51.734;8.744;2023-07-29T15:29:20;23.60;95.50
10980;DHT22;5543;51.734;8.744;2023-07-29T15:31:49;23.50;95.80
10980;DHT22;5543;51.734;8.744;2023-07-29T15:34:17;23.40;96.40
10980;DHT22;5543;51.734;8.744;2023-07-29T15:36:45;23.40;95.90
10980;DHT22;5543;51.734;8.744;2023-07-29T15:39:13;23.30;96.30
10980;DHT22;5543;51.734;8.744;2023-07-29T15:41:41;23.20;96.50
10980;DHT22;5543;51.734;8.744;2023-07-29T15:44:11;23.10;96.70
10980;DHT22;5543;51.734;8.744;2023-07-29T15:46:39;23.00;96.90
10980;DHT22;5543;51.734;8.744;2023-07-29T15:49:08;22.90;97.90
10980;DHT22;5543;51.734;8.744;2023-07-29T15:51:36;22.80;98.00
10980;DHT22;5543;51.734;8.744;2023-07-29T15:54:04;22.70;99.00
10980;DHT22;5543;51.734;8.744;2023-07-29T15:56:33;22.30;99.50
10980;DHT22;5543;51.734;8.744;2023-07-29T15:59:03;22.00;99.90
10980;DHT22;5543;51.734;8.744;2023-07-29T16:01:33;21.50;99.90
10980;DHT22;5543;51.734;8.744;2023-07-29T16:04:01;21.10;99.90
10980;DHT22;5543;51.734;8.744;2023-07-29T16:06:30;20.80;99.90
10980;DHT22;5543;51.734;8.744;2023-07-29T16:08:58;20.40;99.90
10980;DHT22;5543;51.734;8.744;2023-07-29T16:11:33;20.10;99.90
10980;DHT22;5543;51.734;8.744;2023-07-29T16:14:01;19.90;99.90
10980;DHT22;5543;51.734;8.744;2023-07-29T16:16:30;19.70;99.90
10980;DHT22;5543;51.734;8.744;2023-07-29T16:19:00;19.40;99.90
10980;DHT22;5543;51.734;8.744;2023-07-29T16:21:28;19.20;99.90